createdAt,value
2018-03-27T00:00:17.542Z,56.03
2018-03-27T00:02:44.051Z,56.03
2018-03-27T00:05:15.489Z,54.90
2018-03-27T00:07:42.031Z,51.73
2018-03-27T00:10:08.699Z,53.83
2018-03-27T00:12:35.176Z,54.33
2018-03-27T00:15:03.173Z,61.30
2018-03-27T00:17:29.660Z,50.73
2018-03-27T00:19:56.188Z,55.90
2018-03-27T00:22:22.660Z,55.93
2018-03-27T00:24:49.892Z,52.73
2018-03-27T00:27:16.139Z,53.97
2018-03-27T00:29:54.628Z,52.07
2018-03-27T00:32:33.298Z,50.90
2018-03-27T00:35:11.884Z,55.30
2018-03-27T00:37:50.535Z,57.50
2018-03-27T00:40:29.200Z,49.60
2018-03-27T00:42:55.777Z,48.70
2018-03-27T00:45:22.356Z,53.33
2018-03-27T00:47:49.931Z,48.83
2018-03-27T00:50:16.428Z,57.10
2018-03-27T00:52:42.949Z,56.90
2018-03-27T00:55:09.435Z,53.13
2018-03-27T00:57:35.940Z,51.80
2018-03-27T01:00:02.519Z,55.37
2018-03-27T01:02:29.053Z,50.43
2018-03-27T01:04:55.652Z,53.73
2018-03-27T01:07:22.137Z,52.27
2018-03-27T01:09:48.699Z,47.53
2018-03-27T01:12:15.179Z,55.20
2018-03-27T01:14:41.645Z,51.03
2018-03-27T01:17:08.131Z,55.67
2018-03-27T01:19:34.668Z,49.63
2018-03-27T01:22:01.159Z,52.30
2018-03-27T01:24:27.653Z,50.43
2018-03-27T01:26:54.908Z,54.70
2018-03-27T01:29:21.471Z,49.90
2018-03-27T01:31:47.958Z,53.70
2018-03-27T01:34:14.453Z,51.63
2018-03-27T01:36:41.703Z,52.13
2018-03-27T01:39:08.919Z,55.87
2018-03-27T01:41:36.145Z,53.00
2018-03-27T01:44:02.676Z,53.47
2018-03-27T01:46:29.172Z,56.93
2018-03-27T01:48:56.455Z,65.13
2018-03-27T01:51:23.055Z,50.40
2018-03-27T01:53:49.551Z,51.97
2018-03-27T01:56:17.605Z,52.87
2018-03-27T01:58:44.082Z,60.30
2018-03-27T02:01:10.634Z,54.70
2018-03-27T02:03:37.151Z,58.40
2018-03-27T02:06:03.674Z,58.93
2018-03-27T02:08:30.200Z,55.03
2018-03-27T02:11:02.680Z,59.90
2018-03-27T02:13:35.191Z,56.40
2018-03-27T02:16:07.644Z,55.50
2018-03-27T02:18:40.132Z,55.57
2018-03-27T02:21:12.644Z,53.03
2018-03-27T02:23:39.182Z,51.33
2018-03-27T02:26:05.693Z,54.50
2018-03-27T02:28:32.940Z,56.23
2018-03-27T02:30:59.438Z,54.13
2018-03-27T02:33:25.949Z,52.23
2018-03-27T02:35:52.434Z,52.93
2018-03-27T02:38:18.928Z,59.03
2018-03-27T02:40:45.420Z,65.53
2018-03-27T02:43:11.949Z,62.67
2018-03-27T02:45:38.463Z,64.63
2018-03-27T02:48:05.005Z,62.53
2018-03-27T02:50:31.485Z,62.50
2018-03-27T02:52:58.030Z,64.97
2018-03-27T02:55:24.541Z,64.53
2018-03-27T02:57:51.812Z,63.20
2018-03-27T03:00:18.294Z,68.53
2018-03-27T03:02:44.830Z,68.63
2018-03-27T03:05:11.299Z,59.77
2018-03-27T03:07:38.524Z,64.40
2018-03-27T03:10:05.026Z,61.60
2018-03-27T03:12:32.283Z,63.50
2018-03-27T03:14:58.784Z,67.73
2018-03-27T03:17:25.280Z,61.87
2018-03-27T03:19:51.781Z,62.47
2018-03-27T03:22:18.346Z,65.13
2018-03-27T03:24:44.820Z,65.77
2018-03-27T03:27:11.331Z,68.90
2018-03-27T03:29:37.829Z,67.00
2018-03-27T03:32:04.371Z,60.73
2018-03-27T03:34:31.634Z,66.27
2018-03-27T03:36:58.855Z,67.60
2018-03-27T03:39:25.349Z,67.40
2018-03-27T03:41:51.846Z,60.97
2018-03-27T03:44:18.342Z,63.50
2018-03-27T03:46:44.902Z,62.83
2018-03-27T03:49:11.433Z,61.63
2018-03-27T03:51:38.039Z,66.80
2018-03-27T03:54:05.255Z,64.87
2018-03-27T03:56:31.734Z,66.80
2018-03-27T03:58:58.261Z,61.40
2018-03-27T04:01:25.497Z,68.03
2018-03-27T04:03:52.027Z,65.20
2018-03-27T04:06:18.529Z,64.73
2018-03-27T04:08:44.994Z,64.90
2018-03-27T04:11:11.509Z,67.27
2018-03-27T04:13:38.040Z,70.67
2018-03-27T04:16:05.239Z,67.07
2018-03-27T04:18:31.725Z,68.37
2018-03-27T04:20:58.227Z,71.07
2018-03-27T04:23:24.756Z,65.90
2018-03-27T04:25:51.319Z,66.47
2018-03-27T04:28:17.827Z,69.03
2018-03-27T04:30:44.356Z,68.57
2018-03-27T04:33:11.584Z,75.70
2018-03-27T04:35:38.125Z,78.67
2018-03-27T04:38:04.601Z,74.07
2018-03-27T04:40:31.112Z,72.20
2018-03-27T04:42:58.307Z,74.17
2018-03-27T04:45:24.841Z,69.40
2018-03-27T04:47:51.333Z,71.57
2018-03-27T04:50:18.561Z,73.07
2018-03-27T04:52:45.042Z,73.13
2018-03-27T04:55:11.573Z,74.03
2018-03-27T04:57:38.127Z,74.00
2018-03-27T05:00:04.680Z,78.43
2018-03-27T05:02:31.166Z,76.63
2018-03-27T05:04:57.666Z,75.63
2018-03-27T05:07:24.225Z,77.37
2018-03-27T05:09:51.492Z,77.37
2018-03-27T05:12:18.057Z,70.50
2018-03-27T05:14:44.562Z,74.80
2018-03-27T05:17:11.122Z,71.37
2018-03-27T05:19:37.622Z,71.43
2018-03-27T05:22:04.897Z,72.17
2018-03-27T05:24:31.381Z,74.77
2018-03-27T05:26:57.894Z,72.20
2018-03-27T05:29:24.413Z,66.80
2018-03-27T05:31:50.951Z,69.27
2018-03-27T05:34:17.458Z,73.27
2018-03-27T05:36:44.060Z,71.83
2018-03-27T05:39:10.595Z,75.43
2018-03-27T05:41:37.059Z,68.53
2018-03-27T05:44:04.350Z,63.93
2018-03-27T05:46:30.829Z,67.27
2018-03-27T05:48:57.364Z,66.47
2018-03-27T05:51:23.838Z,67.43
2018-03-27T05:53:50.346Z,67.33
2018-03-27T05:56:17.596Z,70.17
2018-03-27T05:58:44.896Z,64.77
2018-03-27T06:01:11.395Z,64.13
2018-03-27T06:03:38.669Z,65.77
2018-03-27T06:06:05.175Z,70.17
2018-03-27T06:08:32.498Z,63.87
2018-03-27T06:10:59.072Z,65.20
2018-03-27T06:13:26.383Z,64.23
2018-03-27T06:15:52.955Z,66.30
2018-03-27T06:18:20.256Z,64.43
2018-03-27T06:20:46.828Z,63.77
2018-03-27T06:23:13.338Z,64.00
2018-03-27T06:25:39.836Z,63.20
2018-03-27T06:28:06.974Z,72.83
2018-03-27T06:30:33.504Z,64.13
2018-03-27T06:33:00.079Z,71.57
2018-03-27T06:35:26.602Z,74.03
2018-03-27T06:37:53.245Z,69.70
2018-03-27T06:40:19.711Z,72.17
2018-03-27T06:42:46.935Z,81.50
2018-03-27T06:45:13.421Z,74.33
2018-03-27T06:47:40.048Z,84.03
2018-03-27T06:50:06.530Z,83.93
2018-03-27T06:52:33.050Z,81.23
2018-03-27T06:54:59.575Z,80.23
2018-03-27T06:57:26.831Z,75.97
2018-03-27T06:59:54.080Z,78.00
2018-03-27T07:02:21.452Z,81.37
2018-03-27T07:04:47.969Z,78.77
2018-03-27T07:07:15.228Z,71.33
2018-03-27T07:09:42.675Z,77.57
2018-03-27T07:12:09.154Z,74.10
2018-03-27T07:14:35.771Z,83.07
2018-03-27T07:17:02.327Z,80.70
2018-03-27T07:19:28.952Z,79.63
2018-03-27T07:21:55.513Z,70.50
2018-03-27T07:24:22.044Z,76.07
2018-03-27T07:26:48.613Z,77.23
2018-03-27T07:29:15.159Z,78.47
2018-03-27T07:31:41.684Z,68.23
2018-03-27T07:34:08.285Z,79.53
2018-03-27T07:36:34.774Z,69.93
2018-03-27T07:39:01.419Z,70.17
2018-03-27T07:41:27.956Z,67.80
2018-03-27T07:43:55.210Z,68.80
2018-03-27T07:46:21.740Z,69.47
2018-03-27T07:48:49.042Z,66.90
2018-03-27T07:51:19.737Z,62.33
2018-03-27T07:53:46.980Z,63.93
2018-03-27T07:56:14.260Z,64.17
2018-03-27T07:58:40.792Z,75.30
2018-03-27T08:01:07.581Z,70.83
2018-03-27T08:03:34.166Z,65.00
2018-03-27T08:06:00.646Z,77.47
2018-03-27T08:08:27.324Z,62.33
2018-03-27T08:10:54.599Z,65.80
2018-03-27T08:13:21.815Z,62.90
2018-03-27T08:15:48.485Z,71.37
2018-03-27T08:18:14.966Z,69.97
2018-03-27T08:20:41.453Z,68.27
2018-03-27T08:23:07.937Z,71.73
2018-03-27T08:25:34.476Z,69.63
2018-03-27T08:28:01.368Z,65.37
2018-03-27T08:30:28.183Z,67.13
2018-03-27T08:32:54.927Z,73.73
2018-03-27T08:35:22.428Z,67.57
2018-03-27T08:37:49.680Z,68.10
2018-03-27T08:40:16.391Z,73.87
2018-03-27T08:42:43.804Z,77.33
2018-03-27T08:45:10.534Z,63.83
2018-03-27T08:47:37.316Z,64.70
2018-03-27T08:50:04.974Z,69.33
2018-03-27T08:52:31.593Z,63.63
2018-03-27T08:54:58.078Z,65.83
2018-03-27T08:57:24.557Z,70.57
2018-03-27T08:59:51.092Z,72.20
2018-03-27T09:02:18.619Z,62.20
2018-03-27T09:04:45.534Z,72.50
2018-03-27T09:07:12.327Z,70.83
2018-03-27T09:09:39.049Z,66.77
2018-03-27T09:12:05.578Z,60.27
2018-03-27T09:14:32.052Z,61.17
2018-03-27T09:16:58.552Z,60.67
2018-03-27T09:19:25.035Z,57.27
2018-03-27T09:21:51.525Z,61.83
2018-03-27T09:24:18.068Z,55.90
2018-03-27T09:26:44.552Z,54.17
2018-03-27T09:29:11.055Z,61.00
2018-03-27T09:31:37.544Z,56.20
2018-03-27T09:34:04.046Z,61.93
2018-03-27T09:36:30.523Z,68.00
2018-03-27T09:38:56.993Z,55.70
2018-03-27T09:41:23.476Z,64.90
2018-03-27T09:43:50.723Z,57.80
2018-03-27T09:46:17.948Z,56.50
2018-03-27T09:48:44.427Z,62.13
2018-03-27T09:51:11.064Z,56.53
2018-03-27T09:53:37.568Z,60.97
2018-03-27T09:56:04.070Z,54.27
2018-03-27T09:58:30.586Z,59.17
2018-03-27T10:00:57.105Z,54.33
2018-03-27T10:03:23.596Z,58.63
2018-03-27T10:05:50.078Z,52.00
2018-03-27T10:08:16.564Z,53.80
2018-03-27T10:10:43.125Z,49.70
2018-03-27T10:13:11.091Z,46.60
2018-03-27T10:15:38.367Z,51.00
2018-03-27T10:18:04.987Z,42.10
2018-03-27T10:20:31.486Z,35.87
2018-03-27T10:22:57.971Z,35.63
2018-03-27T10:25:24.519Z,35.07
2018-03-27T10:27:51.049Z,35.57
2018-03-27T10:30:17.545Z,35.37
2018-03-27T10:32:44.215Z,36.10
2018-03-27T10:35:10.751Z,34.77
2018-03-27T10:37:37.337Z,36.67
2018-03-27T10:40:04.368Z,36.03
2018-03-27T10:42:31.281Z,29.10
2018-03-27T10:44:57.780Z,27.80
2018-03-27T10:47:24.305Z,25.57
2018-03-27T10:49:50.801Z,27.53
2018-03-27T10:52:17.321Z,27.60
2018-03-27T10:54:43.824Z,29.03
2018-03-27T10:57:11.079Z,28.93
2018-03-27T10:59:37.610Z,23.77
2018-03-27T11:02:04.108Z,23.50
2018-03-27T11:04:30.671Z,23.37
2018-03-27T11:06:57.912Z,22.43
2018-03-27T11:09:24.556Z,23.67
2018-03-27T11:11:51.064Z,25.47
2018-03-27T11:14:17.564Z,23.90
2018-03-27T11:16:44.094Z,22.23
2018-03-27T11:19:11.355Z,21.17
2018-03-27T11:21:38.680Z,22.73
2018-03-27T11:24:05.176Z,21.93
2018-03-27T11:26:31.654Z,23.80
2018-03-27T11:28:58.171Z,31.37
2018-03-27T11:31:24.772Z,28.10
2018-03-27T11:33:51.279Z,27.03
2018-03-27T11:36:17.796Z,28.67
2018-03-27T11:38:44.266Z,25.17
2018-03-27T11:41:10.783Z,30.33
2018-03-27T11:43:37.999Z,29.77
2018-03-27T11:46:04.566Z,25.67
2018-03-27T11:48:31.821Z,24.00
2018-03-27T11:50:58.329Z,26.50
2018-03-27T11:53:24.886Z,28.53
2018-03-27T11:55:51.399Z,25.20
2018-03-27T11:58:17.895Z,26.00
2018-03-27T12:00:44.429Z,28.73
2018-03-27T12:03:10.983Z,26.17
2018-03-27T12:05:37.517Z,26.80
2018-03-27T12:08:03.995Z,26.37
2018-03-27T12:10:30.507Z,23.27
2018-03-27T12:12:57.764Z,22.17
2018-03-27T12:15:24.282Z,27.30
2018-03-27T12:17:50.807Z,21.80
2018-03-27T12:20:17.324Z,21.40
2018-03-27T12:22:43.835Z,24.87
2018-03-27T12:25:10.509Z,21.73
2018-03-27T12:27:37.091Z,20.83
2018-03-27T12:30:03.803Z,19.80
2018-03-27T12:32:30.376Z,20.53
2018-03-27T12:34:56.899Z,24.57
2018-03-27T12:37:23.384Z,19.13
2018-03-27T12:39:49.964Z,18.27
2018-03-27T12:42:16.464Z,18.33
2018-03-27T12:44:43.039Z,18.00
2018-03-27T12:47:09.535Z,17.23
2018-03-27T12:49:36.009Z,16.70
2018-03-27T12:52:02.519Z,14.97
2018-03-27T12:54:29.035Z,14.80
2018-03-27T12:56:55.530Z,15.27
2018-03-27T12:59:21.995Z,14.07
2018-03-27T13:01:48.508Z,16.07
2018-03-27T13:04:16.417Z,14.03
2018-03-27T13:06:42.947Z,13.83
2018-03-27T13:09:09.475Z,13.23
2018-03-27T13:11:35.971Z,12.67
2018-03-27T13:14:02.520Z,12.57
2018-03-27T13:16:29.761Z,14.30
2018-03-27T13:18:56.352Z,12.70
2018-03-27T13:21:22.812Z,13.40
2018-03-27T13:23:50.064Z,12.63
2018-03-27T13:26:17.345Z,13.80
2018-03-27T13:28:43.888Z,13.63
2018-03-27T13:31:10.397Z,12.53
2018-03-27T13:33:36.876Z,13.20
2018-03-27T13:36:03.376Z,14.60
2018-03-27T13:38:29.850Z,13.00
2018-03-27T13:40:56.346Z,11.87
2018-03-27T13:43:22.877Z,13.13
2018-03-27T13:45:49.366Z,13.10
2018-03-27T13:48:15.857Z,12.10
2018-03-27T13:50:42.383Z,12.20
2018-03-27T13:53:08.865Z,12.93
2018-03-27T13:55:35.405Z,14.47
2018-03-27T13:58:01.888Z,13.17
2018-03-27T14:00:28.362Z,12.90
2018-03-27T14:02:54.935Z,12.93
2018-03-27T14:05:21.465Z,12.87
2018-03-27T14:07:47.982Z,12.93
2018-03-27T14:10:14.535Z,12.83
2018-03-27T14:12:41.054Z,13.00
2018-03-27T14:15:07.580Z,11.33
2018-03-27T14:17:34.082Z,11.87
2018-03-27T14:20:00.568Z,12.63
2018-03-27T14:22:27.102Z,11.97
2018-03-27T14:24:53.582Z,11.90
2018-03-27T14:27:20.075Z,12.13
2018-03-27T14:29:46.562Z,13.97
2018-03-27T14:32:13.064Z,12.43
2018-03-27T14:34:39.533Z,12.37
2018-03-27T14:37:06.782Z,13.73
2018-03-27T14:39:34.238Z,10.70
2018-03-27T14:42:01.618Z,12.67
2018-03-27T14:44:28.248Z,11.40
2018-03-27T14:46:54.709Z,13.47
2018-03-27T14:49:21.204Z,11.57
2018-03-27T14:51:47.787Z,31.03
2018-03-27T14:54:14.387Z,14.30
2018-03-27T14:56:41.023Z,13.67
2018-03-27T14:59:07.635Z,14.17
2018-03-27T15:01:34.207Z,15.37
2018-03-27T15:04:00.703Z,13.57
2018-03-27T15:06:27.301Z,13.87
2018-03-27T15:08:54.424Z,16.20
2018-03-27T15:11:20.989Z,15.70
2018-03-27T15:13:47.513Z,13.83
2018-03-27T15:16:14.057Z,13.90
2018-03-27T15:18:40.631Z,14.50
2018-03-27T15:21:07.119Z,19.03
2018-03-27T15:23:33.607Z,15.13
2018-03-27T15:26:00.110Z,15.10
2018-03-27T15:28:26.612Z,11.60
2018-03-27T15:30:53.852Z,19.90
2018-03-27T15:33:21.117Z,20.93
2018-03-27T15:35:47.603Z,14.10
2018-03-27T15:38:14.217Z,13.47
2018-03-27T15:40:40.734Z,11.87
2018-03-27T15:43:07.294Z,13.70
2018-03-27T15:45:33.777Z,10.40
2018-03-27T15:48:00.344Z,12.10
2018-03-27T15:50:26.857Z,12.47
2018-03-27T15:52:54.198Z,12.47
2018-03-27T15:55:20.751Z,12.10
2018-03-27T15:57:48.012Z,11.20
2018-03-27T16:00:15.227Z,9.37
2018-03-27T16:02:41.702Z,11.73
2018-03-27T16:05:08.178Z,10.37
2018-03-27T16:07:34.721Z,11.73
2018-03-27T16:10:01.194Z,11.73
2018-03-27T16:12:27.702Z,9.30
2018-03-27T16:14:54.183Z,11.47
2018-03-27T16:17:20.670Z,11.30
2018-03-27T16:19:47.144Z,10.93
2018-03-27T16:22:13.616Z,8.63
2018-03-27T16:24:40.949Z,8.97
2018-03-27T16:27:07.440Z,12.17
2018-03-27T16:29:34.696Z,9.43
2018-03-27T16:32:01.173Z,13.17
2018-03-27T16:34:27.727Z,12.13
2018-03-27T16:36:54.252Z,14.63
2018-03-27T16:39:20.740Z,14.30
2018-03-27T16:41:47.966Z,13.73
2018-03-27T16:44:14.556Z,16.70
2018-03-27T16:46:41.110Z,22.87
2018-03-27T16:49:07.598Z,24.93
2018-03-27T16:51:34.101Z,22.40
2018-03-27T16:54:01.316Z,20.33
2018-03-27T16:56:27.805Z,20.83
2018-03-27T16:58:54.360Z,21.00
2018-03-27T17:01:21.568Z,24.33
2018-03-27T17:03:48.065Z,19.83
2018-03-27T17:06:14.563Z,22.10
2018-03-27T17:08:41.030Z,23.33
2018-03-27T17:11:07.517Z,16.17
2018-03-27T17:13:34.039Z,21.63
2018-03-27T17:16:00.533Z,16.57
2018-03-27T17:18:27.785Z,17.63
2018-03-27T17:20:55.072Z,18.63
2018-03-27T17:23:21.582Z,61.57
2018-03-27T17:25:48.098Z,21.20
2018-03-27T17:28:15.335Z,18.37
2018-03-27T17:30:41.834Z,19.37
2018-03-27T17:33:08.349Z,19.20
2018-03-27T17:35:34.877Z,19.13
2018-03-27T17:38:01.351Z,20.50
2018-03-27T17:40:27.821Z,23.37
2018-03-27T17:42:54.440Z,25.37
2018-03-27T17:45:20.969Z,21.60
2018-03-27T17:47:47.455Z,21.87
2018-03-27T17:50:13.949Z,24.57
2018-03-27T17:52:40.438Z,22.90
2018-03-27T17:55:06.959Z,24.20
2018-03-27T17:57:33.438Z,18.70
2018-03-27T18:00:00.002Z,24.63
2018-03-27T18:02:27.239Z,18.37
2018-03-27T18:04:53.723Z,18.93
2018-03-27T18:07:20.257Z,20.37
2018-03-27T18:09:46.756Z,20.90
2018-03-27T18:12:13.319Z,18.57
2018-03-27T18:14:39.812Z,24.13
2018-03-27T18:17:06.330Z,19.00
2018-03-27T18:19:35.664Z,19.50
2018-03-27T18:22:05.242Z,20.43
2018-03-27T18:24:31.849Z,23.47
2018-03-27T18:26:58.351Z,25.27
2018-03-27T18:29:25.636Z,21.57
2018-03-27T18:31:52.168Z,18.23
2018-03-27T18:34:18.698Z,17.33
2018-03-27T18:36:45.188Z,19.13
2018-03-27T18:39:11.715Z,18.60
2018-03-27T18:41:38.336Z,19.33
2018-03-27T18:44:04.885Z,17.90
2018-03-27T18:46:32.226Z,21.17
2018-03-27T18:48:58.743Z,18.60
2018-03-27T18:51:25.244Z,21.20
2018-03-27T18:53:52.508Z,20.17
2018-03-27T18:56:19.743Z,20.57
2018-03-27T18:58:46.249Z,21.27
2018-03-27T19:01:12.793Z,23.50
2018-03-27T19:03:40.107Z,19.27
2018-03-27T19:06:06.613Z,19.37
2018-03-27T19:08:33.860Z,20.43
2018-03-27T19:11:00.416Z,22.33
2018-03-27T19:13:26.923Z,20.57
2018-03-27T19:15:53.552Z,19.33
2018-03-27T19:18:22.654Z,22.00
2018-03-27T19:20:49.174Z,22.60
2018-03-27T19:23:16.183Z,17.70
2018-03-27T19:25:42.678Z,19.70
2018-03-27T19:28:09.163Z,22.10
2018-03-27T19:30:35.925Z,23.83
2018-03-27T19:33:02.434Z,18.37
2018-03-27T19:35:28.983Z,19.30
2018-03-27T19:37:56.184Z,22.23
2018-03-27T19:40:23.417Z,22.90
2018-03-27T19:42:49.892Z,17.93
2018-03-27T19:45:16.370Z,17.50
2018-03-27T19:47:42.843Z,20.37
2018-03-27T19:50:10.086Z,20.70
2018-03-27T19:52:36.556Z,18.53
2018-03-27T19:55:03.045Z,22.57
2018-03-27T19:57:29.542Z,23.17
2018-03-27T19:59:56.031Z,20.20
2018-03-27T20:02:23.292Z,24.03
2018-03-27T20:04:50.609Z,27.07
2018-03-27T20:07:17.136Z,23.27
2018-03-27T20:09:43.609Z,24.20
2018-03-27T20:12:10.842Z,25.83
2018-03-27T20:14:37.392Z,31.10
2018-03-27T20:17:03.927Z,23.27
2018-03-27T20:19:30.417Z,22.80
2018-03-27T20:21:56.951Z,21.00
2018-03-27T20:24:23.396Z,21.57
2018-03-27T20:26:49.878Z,23.90
2018-03-27T20:29:17.111Z,22.17
2018-03-27T20:31:43.630Z,20.17
2018-03-27T20:34:10.142Z,23.13
2018-03-27T20:36:36.769Z,21.07
2018-03-27T20:39:03.360Z,21.63
2018-03-27T20:41:29.836Z,20.63
2018-03-27T20:43:56.327Z,20.80
2018-03-27T20:46:22.907Z,22.47
2018-03-27T20:48:49.432Z,24.07
2018-03-27T20:51:15.938Z,21.87
2018-03-27T20:53:43.445Z,22.17
2018-03-27T20:56:09.998Z,22.73
2018-03-27T20:58:36.535Z,22.30
2018-03-27T21:01:03.137Z,25.77
2018-03-27T21:03:29.664Z,25.50
2018-03-27T21:05:56.172Z,22.83
2018-03-27T21:08:22.731Z,22.23
2018-03-27T21:10:49.311Z,30.33
2018-03-27T21:13:15.773Z,22.93
2018-03-27T21:15:42.315Z,26.20
2018-03-27T21:18:08.858Z,21.90
2018-03-27T21:20:35.439Z,24.93
2018-03-27T21:23:01.981Z,25.30
2018-03-27T21:25:28.516Z,26.13
2018-03-27T21:27:55.080Z,19.47
2018-03-27T21:30:21.709Z,22.77
2018-03-27T21:32:48.196Z,22.80
2018-03-27T21:35:14.707Z,21.47
2018-03-27T21:37:41.202Z,28.37
2018-03-27T21:40:07.706Z,22.73
2018-03-27T21:42:34.209Z,23.73
2018-03-27T21:45:00.738Z,20.30
2018-03-27T21:47:27.259Z,20.70
2018-03-27T21:49:53.774Z,19.87
2018-03-27T21:52:20.334Z,22.43
2018-03-27T21:54:46.829Z,20.50
2018-03-27T21:57:13.314Z,18.97
2018-03-27T21:59:39.820Z,25.50
2018-03-27T22:02:06.673Z,19.10
2018-03-27T22:04:33.230Z,21.13
2018-03-27T22:06:59.745Z,23.53
2018-03-27T22:09:26.278Z,19.73
2018-03-27T22:11:52.908Z,19.20
2018-03-27T22:14:19.383Z,24.13
2018-03-27T22:16:45.791Z,23.43
2018-03-27T22:19:12.202Z,20.97
2018-03-27T22:21:38.755Z,22.93
2018-03-27T22:24:05.211Z,24.80
2018-03-27T22:26:31.665Z,20.90
2018-03-27T22:28:58.885Z,21.20
2018-03-27T22:31:26.098Z,23.13
2018-03-27T22:33:52.531Z,21.90
2018-03-27T22:36:19.106Z,22.13
2018-03-27T22:38:45.645Z,21.73
2018-03-27T22:41:12.129Z,24.73
2018-03-27T22:43:38.572Z,21.90
2018-03-27T22:46:05.060Z,22.73
2018-03-27T22:48:31.519Z,22.60
2018-03-27T22:50:57.931Z,21.93
2018-03-27T22:53:24.426Z,23.37
2018-03-27T22:55:50.853Z,21.60
2018-03-27T22:58:17.260Z,23.70
2018-03-27T23:00:43.672Z,23.23
2018-03-27T23:03:10.134Z,27.13
2018-03-27T23:05:36.605Z,25.67
2018-03-27T23:08:03.043Z,21.70
2018-03-27T23:10:29.492Z,21.30
2018-03-27T23:12:55.918Z,24.13
2018-03-27T23:15:22.358Z,26.60
2018-03-27T23:17:48.802Z,23.37
2018-03-27T23:20:15.243Z,27.70
2018-03-27T23:22:41.671Z,26.33
2018-03-27T23:25:08.129Z,28.50
2018-03-27T23:27:35.285Z,25.37
2018-03-27T23:30:01.712Z,22.93
2018-03-27T23:32:28.189Z,26.27
2018-03-27T23:34:54.649Z,25.47
2018-03-27T23:37:21.093Z,24.37
2018-03-27T23:39:48.280Z,28.20
2018-03-27T23:42:14.790Z,23.63
2018-03-27T23:44:41.963Z,25.57
2018-03-27T23:47:08.424Z,25.47
2018-03-27T23:49:34.918Z,25.43
2018-03-27T23:52:02.086Z,24.63
2018-03-27T23:54:28.517Z,23.50
2018-03-27T23:56:54.951Z,26.33
2018-03-27T23:59:21.386Z,25.53
